To NAV CANADA Home Page Login to a new session Search on AWWS site Disclaimer Vers la page française équivalente Tips FAQ What's new on the site To the Forecasts and Observations / NOTAM section To "File a Flight Plan" website Publications and other links Update of the User's profile FIC Telephone Numbers My Weather Data Folder Route Weather Data Regional Weather Data Local Weather Data To the Forecasts and Observations / NOTAM section
Request Generated 04/24/2019 at 16:48:00 UTC . Weather information available at that time is displayed.

METAR/TAF

KANGIRSUK/QC    

METAR CYAS 241600Z 27013KT 15SM SCT012 M12/M17 A3013 RMK SC3 CONTRAILS SLP221=
METAR CYAS 241500Z 27012G19KT 15SM BKN013 M13/M17 A3016 RMK SC5 SLP230=
METAR CYAS 241400Z 27013KT 15SM SCT013 M13/M18 A3016 RMK SC4 SLP230=

TAF CYAS 241340Z 2414/2421 28012G22KT P6SM FEW025 TEMPO 2414/2421
P6SM -SN BKN020
RMK NXT FCST WILL BE ISSUED AT 251345Z=
Your time UTC time
Weather data provided by Environment Canada and NAV CANADA